createdAt,value
2018-07-19T00:01:11.504Z,18.18
2018-07-19T00:02:11.468Z,18.11
2018-07-19T00:04:04.487Z,18.04
2018-07-19T00:05:04.424Z,18.03
2018-07-19T00:06:57.423Z,17.95
2018-07-19T00:07:57.399Z,17.98
2018-07-19T00:09:50.534Z,18.03
2018-07-19T00:10:50.463Z,17.95
2018-07-19T00:12:43.467Z,17.94
2018-07-19T00:13:43.418Z,17.94
2018-07-19T00:15:36.422Z,17.94
2018-07-19T00:16:36.374Z,17.89
2018-07-19T00:18:29.387Z,17.90
2018-07-19T00:19:29.359Z,17.92
2018-07-19T00:21:22.389Z,17.94
2018-07-19T00:22:22.327Z,17.90
2018-07-19T00:24:15.502Z,17.98
2018-07-19T00:25:15.437Z,17.89
2018-07-19T00:27:08.464Z,17.89
2018-07-19T00:28:08.414Z,17.92
2018-07-19T00:30:01.409Z,17.94
2018-07-19T00:31:01.360Z,17.86
2018-07-19T00:32:54.469Z,18.00
2018-07-19T00:33:54.577Z,17.95
2018-07-19T00:35:47.449Z,17.94
2018-07-19T00:36:47.411Z,17.89
2018-07-19T00:38:40.538Z,17.95
2018-07-19T00:39:40.504Z,17.90
2018-07-19T00:41:33.337Z,17.87
2018-07-19T00:42:33.291Z,17.86
2018-07-19T00:44:26.500Z,17.87
2018-07-19T00:45:26.463Z,17.89
2018-07-19T00:47:19.298Z,17.86
2018-07-19T00:48:19.252Z,17.80
2018-07-19T00:50:12.253Z,17.94
2018-07-19T00:51:12.206Z,17.82
2018-07-19T00:53:05.189Z,17.86
2018-07-19T00:54:05.159Z,17.82
2018-07-19T00:55:58.418Z,17.87
2018-07-19T00:56:58.283Z,17.85
2018-07-19T00:58:51.304Z,17.86
2018-07-19T00:59:51.278Z,17.82
2018-07-19T01:01:44.274Z,17.82
2018-07-19T01:02:44.223Z,17.74
2018-07-19T01:04:37.029Z,17.76
2018-07-19T01:05:37.000Z,17.79
2018-07-19T01:07:30.001Z,17.80
2018-07-19T01:08:29.954Z,17.80
2018-07-19T01:10:22.919Z,17.70
2018-07-19T01:11:22.899Z,17.71
2018-07-19T01:13:16.101Z,17.65
2018-07-19T01:14:16.045Z,17.56
2018-07-19T01:16:09.075Z,17.52
2018-07-19T01:17:09.016Z,17.33
2018-07-19T01:19:02.005Z,17.42
2018-07-19T01:20:01.971Z,17.36
2018-07-19T01:21:55.016Z,17.23
2018-07-19T01:22:54.948Z,17.24
2018-07-19T01:24:47.945Z,17.12
2018-07-19T01:25:47.911Z,16.99
2018-07-19T01:27:41.115Z,17.08
2018-07-19T01:28:41.010Z,16.97
2018-07-19T01:30:34.061Z,17.01
2018-07-19T01:31:34.029Z,17.02
2018-07-19T01:33:27.032Z,16.86
2018-07-19T01:34:26.964Z,16.91
2018-07-19T01:36:19.848Z,16.83
2018-07-19T01:37:19.811Z,16.78
2018-07-19T01:39:12.686Z,16.64
2018-07-19T01:40:12.596Z,16.66
2018-07-19T01:42:05.426Z,16.60
2018-07-19T01:43:05.375Z,16.42
2018-07-19T01:44:58.365Z,16.38
2018-07-19T01:45:58.354Z,16.47
2018-07-19T01:47:51.546Z,16.29
2018-07-19T01:48:51.435Z,16.29
2018-07-19T01:50:44.416Z,16.26
2018-07-19T01:51:44.376Z,16.17
2018-07-19T01:53:37.390Z,16.12
2018-07-19T01:54:37.355Z,16.16
2018-07-19T01:56:30.161Z,16.13
2018-07-19T01:57:30.131Z,16.13
2018-07-19T01:59:23.126Z,16.12
2018-07-19T02:00:23.081Z,16.23
2018-07-19T02:02:15.902Z,16.10
2018-07-19T02:03:15.881Z,16.12
2018-07-19T02:05:08.903Z,16.16
2018-07-19T02:06:08.847Z,16.15
2018-07-19T02:08:01.887Z,16.10
2018-07-19T02:09:01.857Z,16.10
2018-07-19T02:10:54.858Z,16.20
2018-07-19T02:11:54.807Z,16.23
2018-07-19T02:13:47.644Z,16.16
2018-07-19T02:14:47.588Z,16.16
2018-07-19T02:16:40.724Z,16.17
2018-07-19T02:17:40.689Z,16.16
2018-07-19T02:19:33.717Z,16.13
2018-07-19T02:20:33.670Z,16.05
2018-07-19T02:22:26.698Z,16.12
2018-07-19T02:23:26.658Z,16.09
2018-07-19T02:25:19.669Z,16.08
2018-07-19T02:26:19.614Z,16.10
2018-07-19T02:28:12.605Z,16.01
2018-07-19T02:29:12.575Z,16.09
2018-07-19T02:31:05.835Z,16.05
2018-07-19T02:32:05.695Z,16.08
2018-07-19T02:33:58.696Z,15.98
2018-07-19T02:34:58.642Z,15.97
2018-07-19T02:36:51.667Z,16.04
2018-07-19T02:37:51.604Z,16.04
2018-07-19T02:39:44.509Z,16.01
2018-07-19T02:40:44.437Z,16.08
2018-07-19T02:42:37.423Z,16.05
2018-07-19T02:43:37.379Z,16.05
2018-07-19T02:45:30.405Z,15.95
2018-07-19T02:46:30.371Z,15.98
2018-07-19T02:48:23.534Z,16.01
2018-07-19T02:49:23.454Z,15.92
2018-07-19T02:51:16.268Z,15.95
2018-07-19T02:52:16.230Z,15.97
2018-07-19T02:54:09.214Z,15.95
2018-07-19T02:55:09.203Z,15.95
2018-07-19T02:57:02.005Z,16.00
2018-07-19T02:58:01.961Z,15.92
2018-07-19T02:59:54.784Z,15.94
2018-07-19T03:00:54.751Z,15.88
2018-07-19T03:02:47.775Z,15.90
2018-07-19T03:03:47.726Z,15.88
2018-07-19T03:05:40.736Z,15.86
2018-07-19T03:06:40.693Z,15.83
2018-07-19T03:08:33.854Z,15.84
2018-07-19T03:09:33.799Z,15.84
2018-07-19T03:11:26.809Z,15.80
2018-07-19T03:12:26.751Z,15.79
2018-07-19T03:14:19.739Z,15.75
2018-07-19T03:15:19.704Z,15.77
2018-07-19T03:17:12.539Z,15.76
2018-07-19T03:18:12.480Z,15.72
2018-07-19T03:20:05.530Z,15.70
2018-07-19T03:21:05.475Z,15.72
2018-07-19T03:22:58.505Z,15.77
2018-07-19T03:23:58.446Z,15.70
2018-07-19T03:25:51.379Z,15.75
2018-07-19T03:26:51.332Z,15.73
2018-07-19T03:28:44.317Z,15.70
2018-07-19T03:29:44.277Z,15.76
2018-07-19T03:31:37.118Z,15.70
2018-07-19T03:32:37.055Z,15.79
2018-07-19T03:34:30.089Z,15.76
2018-07-19T03:35:30.050Z,15.76
2018-07-19T03:37:23.090Z,15.77
2018-07-19T03:38:23.025Z,15.68
2018-07-19T03:40:16.189Z,15.73
2018-07-19T03:41:15.976Z,15.62
2018-07-19T03:43:09.037Z,15.68
2018-07-19T03:44:09.000Z,15.70
2018-07-19T03:46:02.032Z,15.59
2018-07-19T03:47:01.942Z,15.67
2018-07-19T03:48:54.943Z,15.68
2018-07-19T03:49:54.886Z,15.64
2018-07-19T03:51:48.092Z,15.65
2018-07-19T03:52:47.995Z,15.68
2018-07-19T03:54:40.977Z,15.54
2018-07-19T03:55:40.956Z,15.67
2018-07-19T03:57:33.948Z,15.52
2018-07-19T03:58:33.895Z,15.59
2018-07-19T04:00:26.710Z,15.61
2018-07-19T04:01:26.702Z,15.62
2018-07-19T04:03:19.678Z,15.57
2018-07-19T04:04:19.628Z,15.57
2018-07-19T04:06:12.598Z,15.52
2018-07-19T04:07:12.572Z,15.61
2018-07-19T04:09:05.401Z,15.59
2018-07-19T04:10:05.344Z,15.59
2018-07-19T04:11:58.506Z,15.64
2018-07-19T04:12:58.437Z,15.61
2018-07-19T04:14:51.413Z,15.57
2018-07-19T04:15:51.377Z,15.59
2018-07-19T04:17:44.389Z,15.64
2018-07-19T04:18:44.341Z,15.65
2018-07-19T04:20:37.152Z,15.67
2018-07-19T04:21:37.117Z,15.62
2018-07-19T04:23:30.173Z,15.58
2018-07-19T04:24:30.106Z,15.65
2018-07-19T04:26:23.098Z,15.58
2018-07-19T04:27:23.067Z,15.61
2018-07-19T04:29:16.030Z,15.62
2018-07-19T04:30:15.982Z,15.59
2018-07-19T04:32:08.819Z,15.59
2018-07-19T04:33:08.756Z,15.62
2018-07-19T04:35:01.809Z,15.58
2018-07-19T04:36:01.761Z,15.59
2018-07-19T04:37:55.032Z,15.54
2018-07-19T04:38:54.881Z,15.57
2018-07-19T04:40:47.714Z,15.52
2018-07-19T04:41:47.647Z,15.42
2018-07-19T04:43:40.645Z,15.47
2018-07-19T04:44:40.604Z,15.49
2018-07-19T04:46:33.703Z,15.46
2018-07-19T04:47:33.680Z,15.46
2018-07-19T04:49:26.672Z,15.44
2018-07-19T04:50:26.620Z,15.43
2018-07-19T04:52:19.615Z,15.47
2018-07-19T04:53:19.580Z,15.42
2018-07-19T04:55:12.789Z,15.49
2018-07-19T04:56:12.679Z,15.42
2018-07-19T04:58:05.651Z,15.39
2018-07-19T04:59:05.621Z,15.46
2018-07-19T05:00:58.651Z,15.44
2018-07-19T05:01:58.652Z,15.47
2018-07-19T05:03:51.411Z,15.52
2018-07-19T05:04:51.375Z,15.52
2018-07-19T05:06:44.384Z,15.57
2018-07-19T05:07:44.320Z,15.54
2018-07-19T05:09:37.381Z,15.59
2018-07-19T05:10:37.340Z,15.59
2018-07-19T05:12:30.164Z,15.58
2018-07-19T05:13:30.104Z,15.62
2018-07-19T05:15:23.143Z,15.67
2018-07-19T05:16:23.071Z,15.59
2018-07-19T05:18:15.908Z,15.65
2018-07-19T05:19:15.846Z,15.68
2018-07-19T05:21:08.876Z,15.70
2018-07-19T05:22:08.821Z,15.79
2018-07-19T05:24:01.927Z,15.84
2018-07-19T05:25:01.897Z,15.84
2018-07-19T05:26:54.919Z,15.82
2018-07-19T05:27:54.857Z,15.90
2018-07-19T05:29:47.850Z,15.98
2018-07-19T05:30:47.807Z,15.97
2018-07-19T05:32:40.893Z,16.00
2018-07-19T05:33:40.847Z,16.09
2018-07-19T05:35:33.859Z,16.00
2018-07-19T05:36:33.862Z,16.05
2018-07-19T05:38:27.004Z,16.16
2018-07-19T05:39:26.904Z,16.17
2018-07-19T05:41:19.725Z,16.17
2018-07-19T05:42:19.690Z,16.17
2018-07-19T05:44:12.726Z,16.09
2018-07-19T05:45:12.724Z,16.23
2018-07-19T05:47:05.917Z,16.29
2018-07-19T05:48:05.803Z,16.32
2018-07-19T05:49:58.801Z,16.33
2018-07-19T05:50:58.758Z,16.46
2018-07-19T05:52:51.790Z,16.42
2018-07-19T05:53:51.727Z,16.43
2018-07-19T05:55:44.761Z,16.51
2018-07-19T05:56:44.726Z,16.61
2018-07-19T05:58:37.768Z,16.69
2018-07-19T05:59:37.693Z,16.72
2018-07-19T06:01:30.529Z,16.66
2018-07-19T06:02:30.474Z,16.84
2018-07-19T06:04:23.288Z,16.84
2018-07-19T06:05:23.262Z,16.87
2018-07-19T06:07:16.287Z,16.93
2018-07-19T06:08:16.240Z,16.97
2018-07-19T06:10:09.226Z,17.09
2018-07-19T06:11:09.203Z,17.15
2018-07-19T06:13:02.437Z,17.14
2018-07-19T06:14:02.326Z,17.22
2018-07-19T06:15:55.324Z,17.33
2018-07-19T06:16:55.283Z,17.31
2018-07-19T06:18:48.338Z,17.34
2018-07-19T06:19:48.279Z,17.51
2018-07-19T06:21:41.094Z,17.54
2018-07-19T06:22:41.055Z,17.51
2018-07-19T06:24:34.063Z,17.67
2018-07-19T06:25:34.023Z,17.76
2018-07-19T06:27:27.022Z,17.86
2018-07-19T06:28:27.034Z,17.86
2018-07-19T06:30:20.150Z,18.08
2018-07-19T06:31:20.084Z,17.98
2018-07-19T06:33:13.115Z,18.07
2018-07-19T06:34:13.068Z,18.22
2018-07-19T06:36:06.064Z,18.26
2018-07-19T06:37:06.031Z,18.38
2018-07-19T06:38:59.081Z,18.45
2018-07-19T06:39:59.020Z,18.56
2018-07-19T06:41:51.849Z,18.70
2018-07-19T06:42:51.804Z,18.74
2018-07-19T06:44:44.840Z,18.84
2018-07-19T06:45:44.789Z,18.90
2018-07-19T06:47:37.637Z,18.99
2018-07-19T06:48:37.605Z,19.02
2018-07-19T06:50:30.679Z,19.04
2018-07-19T06:51:30.561Z,19.21
2018-07-19T06:53:23.567Z,19.18
2018-07-19T06:54:23.554Z,19.33
2018-07-19T06:56:16.730Z,19.40
2018-07-19T06:57:16.641Z,19.51
2018-07-19T06:59:09.704Z,19.64
2018-07-19T07:00:09.662Z,19.59
2018-07-19T07:02:02.475Z,19.81
2018-07-19T07:03:02.445Z,19.82
2018-07-19T07:04:55.616Z,19.99
2018-07-19T07:05:55.565Z,20.09
2018-07-19T07:07:48.545Z,20.19
2018-07-19T07:08:48.541Z,20.34
2018-07-19T07:10:41.857Z,20.44
2018-07-19T07:11:41.647Z,20.43
2018-07-19T07:13:34.655Z,20.65
2018-07-19T07:14:34.625Z,20.66
2018-07-19T07:16:27.644Z,20.84
2018-07-19T07:17:27.593Z,20.92
2018-07-19T07:19:20.489Z,21.17
2018-07-19T07:20:20.457Z,21.12
2018-07-19T07:22:13.330Z,21.18
2018-07-19T07:23:13.240Z,21.27
2018-07-19T07:25:06.295Z,21.40
2018-07-19T07:26:06.329Z,21.52
2018-07-19T07:27:59.555Z,21.61
2018-07-19T07:28:59.407Z,21.72
2018-07-19T07:30:52.432Z,21.83
2018-07-19T07:31:52.386Z,21.88
2018-07-19T07:33:45.397Z,21.92
2018-07-19T07:34:45.366Z,22.08
2018-07-19T07:36:38.195Z,22.17
2018-07-19T07:37:38.147Z,22.17
2018-07-19T07:39:31.201Z,22.38
2018-07-19T07:40:31.162Z,22.45
2018-07-19T07:42:24.200Z,22.36
2018-07-19T07:43:24.143Z,22.53
2018-07-19T07:45:17.077Z,22.68
2018-07-19T07:46:17.045Z,22.80
2018-07-19T07:48:10.090Z,22.73
2018-07-19T07:49:10.033Z,22.80
2018-07-19T07:51:03.032Z,22.94
2018-07-19T07:52:03.005Z,22.91
2018-07-19T07:53:56.128Z,22.96
2018-07-19T07:54:56.052Z,23.03
2018-07-19T07:56:49.042Z,23.18
2018-07-19T07:57:49.142Z,23.13
2018-07-19T07:59:42.296Z,23.28
2018-07-19T08:00:42.141Z,23.40
2018-07-19T08:02:35.287Z,23.39
2018-07-19T08:03:35.363Z,23.47
2018-07-19T08:05:28.518Z,23.61
2018-07-19T08:06:28.368Z,23.59
2018-07-19T08:08:21.397Z,23.73
2018-07-19T08:09:21.342Z,23.69
2018-07-19T08:11:14.162Z,23.73
2018-07-19T08:12:14.137Z,23.66
2018-07-19T08:14:06.998Z,23.66
2018-07-19T08:15:06.943Z,23.81
2018-07-19T08:16:59.865Z,23.91
2018-07-19T08:17:59.805Z,23.95
2018-07-19T08:19:52.831Z,24.01
2018-07-19T08:20:52.775Z,24.06
2018-07-19T08:22:45.803Z,24.11
2018-07-19T08:23:45.769Z,24.10
2018-07-19T08:25:38.709Z,24.11
2018-07-19T08:26:38.670Z,24.14
2018-07-19T08:28:31.745Z,24.29
2018-07-19T08:29:31.694Z,24.29
2018-07-19T08:31:24.524Z,24.38
2018-07-19T08:32:24.529Z,24.35
2018-07-19T08:34:17.762Z,24.39
2018-07-19T08:35:17.575Z,24.47
2018-07-19T08:37:10.574Z,24.51
2018-07-19T08:38:10.549Z,24.42
2018-07-19T08:40:03.399Z,24.47
2018-07-19T08:41:03.429Z,24.54
2018-07-19T08:42:56.536Z,24.58
2018-07-19T08:43:56.456Z,24.66
2018-07-19T08:45:49.484Z,24.66
2018-07-19T08:46:49.449Z,24.69
2018-07-19T08:48:42.465Z,24.57
2018-07-19T08:49:42.421Z,24.58
2018-07-19T08:51:35.287Z,24.69
2018-07-19T08:52:35.219Z,24.76
2018-07-19T08:54:28.239Z,24.77
2018-07-19T08:55:28.184Z,24.74
2018-07-19T08:57:21.202Z,24.85
2018-07-19T08:58:21.150Z,24.81
2018-07-19T09:00:14.331Z,24.89
2018-07-19T09:01:14.285Z,24.89
2018-07-19T09:03:07.319Z,25.01
2018-07-19T09:04:07.284Z,24.96
2018-07-19T09:06:00.536Z,24.95
2018-07-19T09:07:00.437Z,24.99
2018-07-19T09:08:53.649Z,25.06
2018-07-19T09:09:53.625Z,25.17
2018-07-19T09:11:46.809Z,25.22
2018-07-19T09:12:46.769Z,25.18
2018-07-19T09:14:39.786Z,25.35
2018-07-19T09:15:39.765Z,25.40
2018-07-19T09:17:32.941Z,25.48
2018-07-19T09:18:32.878Z,25.51
2018-07-19T09:20:25.922Z,25.54
2018-07-19T09:21:25.913Z,25.63
2018-07-19T09:23:18.919Z,25.81
2018-07-19T09:24:18.872Z,25.85
2018-07-19T09:26:11.910Z,25.83
2018-07-19T09:27:11.871Z,25.90
2018-07-19T09:29:04.880Z,25.98
2018-07-19T09:30:04.838Z,26.07
2018-07-19T09:31:58.064Z,26.18
2018-07-19T09:32:57.960Z,26.21
2018-07-19T09:34:51.011Z,26.23
2018-07-19T09:35:50.989Z,26.23
2018-07-19T09:37:44.140Z,26.43
2018-07-19T09:38:44.171Z,26.45
2018-07-19T09:40:37.097Z,26.59
2018-07-19T09:41:37.077Z,26.55
2018-07-19T09:43:30.128Z,26.78
2018-07-19T09:44:30.049Z,26.71
2018-07-19T09:46:22.868Z,26.55
2018-07-19T09:47:22.836Z,26.58
2018-07-19T09:49:15.860Z,26.75
2018-07-19T09:50:15.818Z,26.89
2018-07-19T09:52:08.651Z,26.85
2018-07-19T09:53:08.616Z,26.96
2018-07-19T09:55:01.643Z,27.18
2018-07-19T09:56:01.603Z,27.29
2018-07-19T09:57:54.577Z,27.27
2018-07-19T09:58:54.427Z,27.32
2018-07-19T10:00:47.477Z,27.60
2018-07-19T10:01:47.477Z,27.48
2018-07-19T10:03:40.488Z,27.58
2018-07-19T10:04:40.436Z,27.60
2018-07-19T10:06:33.806Z,27.90
2018-07-19T10:07:33.749Z,28.10
2018-07-19T10:09:26.788Z,28.86
2018-07-19T10:10:26.754Z,29.17
2018-07-19T10:12:19.783Z,29.86
2018-07-19T10:13:19.744Z,30.23
2018-07-19T10:15:12.792Z,30.88
2018-07-19T10:16:12.767Z,31.29
2018-07-19T10:18:05.939Z,32.16
2018-07-19T10:19:05.806Z,32.73
2018-07-19T10:20:58.842Z,33.39
2018-07-19T10:21:58.802Z,33.53
2018-07-19T10:23:51.852Z,33.74
2018-07-19T10:24:51.827Z,33.87
2018-07-19T10:26:44.701Z,33.53
2018-07-19T10:27:44.644Z,33.08
2018-07-19T10:29:37.493Z,32.74
2018-07-19T10:30:37.488Z,32.77
2018-07-19T10:32:30.552Z,32.63
2018-07-19T10:33:30.464Z,32.71
2018-07-19T10:35:23.667Z,33.12
2018-07-19T10:36:23.621Z,33.31
2018-07-19T10:38:16.700Z,33.19
2018-07-19T10:39:16.722Z,33.43
2018-07-19T10:41:09.939Z,33.61
2018-07-19T10:42:09.894Z,33.45
2018-07-19T10:44:02.939Z,33.09
2018-07-19T10:45:02.921Z,32.70
2018-07-19T10:46:56.124Z,33.43
2018-07-19T10:47:56.068Z,33.71
2018-07-19T10:49:49.083Z,33.76
2018-07-19T10:50:49.073Z,34.16
2018-07-19T10:52:42.364Z,34.55
2018-07-19T10:53:42.224Z,34.58
2018-07-19T10:55:35.242Z,35.39
2018-07-19T10:56:35.240Z,35.63
2018-07-19T10:58:28.265Z,36.07
2018-07-19T10:59:28.234Z,36.39
2018-07-19T11:01:21.197Z,36.74
2018-07-19T11:02:21.066Z,36.92
2018-07-19T11:04:14.143Z,37.07
2018-07-19T11:05:14.107Z,37.32
2018-07-19T11:07:07.213Z,37.63
2018-07-19T11:08:07.177Z,36.40
2018-07-19T11:10:00.236Z,36.95
2018-07-19T11:11:00.181Z,37.18
2018-07-19T11:12:53.239Z,37.60
2018-07-19T11:13:53.199Z,37.89
2018-07-19T11:15:46.094Z,38.24
2018-07-19T11:16:46.069Z,38.30
2018-07-19T11:18:39.122Z,38.42
2018-07-19T11:19:39.070Z,38.12
2018-07-19T11:21:32.134Z,37.56
2018-07-19T11:22:32.084Z,37.93
2018-07-19T11:24:25.005Z,38.11
2018-07-19T11:25:24.986Z,37.97
2018-07-19T11:27:18.035Z,38.33
2018-07-19T11:28:18.017Z,38.67
2018-07-19T11:30:11.028Z,38.77
2018-07-19T11:31:11.018Z,38.97
2018-07-19T11:33:04.066Z,39.46
2018-07-19T11:34:04.046Z,39.59
2018-07-19T11:35:57.060Z,38.82
2018-07-19T11:36:57.061Z,38.68
2018-07-19T11:38:50.260Z,39.00
2018-07-19T11:39:50.201Z,39.09
2018-07-19T11:41:43.211Z,39.48
2018-07-19T11:42:43.296Z,39.30
2018-07-19T11:44:36.482Z,39.67
2018-07-19T11:45:36.367Z,39.90
2018-07-19T11:47:29.388Z,40.02
2018-07-19T11:48:29.374Z,40.08
2018-07-19T11:50:22.592Z,39.89
2018-07-19T11:51:22.550Z,39.18
2018-07-19T11:53:15.605Z,39.31
2018-07-19T11:54:15.581Z,39.14
2018-07-19T11:56:08.626Z,39.52
2018-07-19T11:57:08.594Z,39.71
2018-07-19T11:59:01.641Z,39.07
2018-07-19T12:00:01.598Z,39.07
2018-07-19T12:01:54.620Z,38.92
2018-07-19T12:02:54.605Z,39.06
2018-07-19T12:04:47.807Z,38.68
2018-07-19T12:05:47.765Z,38.27
2018-07-19T12:07:40.855Z,38.30
2018-07-19T12:08:40.816Z,38.45
2018-07-19T12:10:34.040Z,38.12
2018-07-19T12:11:34.006Z,38.23
2018-07-19T12:13:27.050Z,38.84
2018-07-19T12:14:27.021Z,39.07
2018-07-19T12:16:20.251Z,39.11
2018-07-19T12:17:20.182Z,39.30
2018-07-19T12:19:13.256Z,39.17
2018-07-19T12:20:13.232Z,39.40
2018-07-19T12:22:06.083Z,38.99
2018-07-19T12:23:06.038Z,38.73
2018-07-19T12:24:58.910Z,38.99
2018-07-19T12:25:58.880Z,39.30
2018-07-19T12:27:51.899Z,38.57
2018-07-19T12:28:51.877Z,38.97
2018-07-19T12:30:44.931Z,37.80
2018-07-19T12:31:44.890Z,37.80
2018-07-19T12:33:37.777Z,38.02
2018-07-19T12:34:37.758Z,38.34
2018-07-19T12:36:30.810Z,38.79
2018-07-19T12:37:30.776Z,39.12
2018-07-19T12:39:23.842Z,38.97
2018-07-19T12:40:23.805Z,38.99
2018-07-19T12:42:16.662Z,38.60
2018-07-19T12:43:16.633Z,38.46
2018-07-19T12:45:09.713Z,38.46
2018-07-19T12:46:09.657Z,37.51
2018-07-19T12:48:02.727Z,37.32
2018-07-19T12:49:02.665Z,36.74
2018-07-19T12:50:55.727Z,37.06
2018-07-19T12:51:55.691Z,37.48
2018-07-19T12:53:48.731Z,37.26
2018-07-19T12:54:48.732Z,37.36
2018-07-19T12:56:41.884Z,38.08
2018-07-19T12:57:41.864Z,38.45
2018-07-19T12:59:34.939Z,39.12
2018-07-19T13:00:34.911Z,39.33
2018-07-19T13:02:28.137Z,39.30
2018-07-19T13:03:28.079Z,39.00
2018-07-19T13:05:21.122Z,38.28
2018-07-19T13:06:21.066Z,37.70
2018-07-19T13:08:14.362Z,37.78
2018-07-19T13:09:14.317Z,37.75
2018-07-19T13:11:07.374Z,37.36
2018-07-19T13:12:07.417Z,37.21
2018-07-19T13:14:00.598Z,37.42
2018-07-19T13:15:00.515Z,37.21
2018-07-19T13:16:53.538Z,37.58
2018-07-19T13:17:53.508Z,37.63
2018-07-19T13:19:46.788Z,37.89
2018-07-19T13:20:46.652Z,38.08
2018-07-19T13:22:39.709Z,38.14
2018-07-19T13:23:39.669Z,38.45
2018-07-19T13:25:32.698Z,38.48
2018-07-19T13:26:32.693Z,38.69
2018-07-19T13:28:25.763Z,39.25
2018-07-19T13:29:25.712Z,39.46
2018-07-19T13:31:18.594Z,39.48
2018-07-19T13:32:18.543Z,39.60
2018-07-19T13:34:11.619Z,39.83
2018-07-19T13:35:11.560Z,39.72
2018-07-19T13:37:04.571Z,38.49
2018-07-19T13:38:04.559Z,38.55
2018-07-19T13:39:57.651Z,38.43
2018-07-19T13:40:57.613Z,38.71
2018-07-19T13:42:50.513Z,38.30
2018-07-19T13:43:50.494Z,38.40
2018-07-19T13:45:43.535Z,38.68
2018-07-19T13:46:43.483Z,39.00
2018-07-19T13:48:36.526Z,39.40
2018-07-19T13:49:36.503Z,39.56
2018-07-19T13:51:29.527Z,39.74
2018-07-19T13:52:29.384Z,39.78
2018-07-19T13:54:22.441Z,39.21
2018-07-19T13:55:22.410Z,38.57
2018-07-19T13:57:15.419Z,39.06
2018-07-19T13:58:15.410Z,39.03
2018-07-19T14:00:08.314Z,38.74
2018-07-19T14:01:08.281Z,38.73
2018-07-19T14:03:01.316Z,38.20
2018-07-19T14:04:01.315Z,38.12
2018-07-19T14:05:54.339Z,38.50
2018-07-19T14:06:54.293Z,38.40
2018-07-19T14:08:47.266Z,38.46
2018-07-19T14:09:47.122Z,38.30
2018-07-19T14:11:40.027Z,38.60
2018-07-19T14:12:39.964Z,38.50
2018-07-19T14:14:32.990Z,38.50
2018-07-19T14:15:32.960Z,38.74
2018-07-19T14:17:26.184Z,38.68
2018-07-19T14:18:26.082Z,38.60
2018-07-19T14:20:19.129Z,39.02
2018-07-19T14:21:19.112Z,39.19
2018-07-19T14:23:12.347Z,39.12
2018-07-19T14:24:12.290Z,39.41
2018-07-19T14:26:05.326Z,39.49
2018-07-19T14:27:05.316Z,39.60
2018-07-19T14:28:58.502Z,39.33
2018-07-19T14:29:58.460Z,39.00
2018-07-19T14:31:51.335Z,38.82
2018-07-19T14:32:51.306Z,38.91
2018-07-19T14:34:44.383Z,38.61
2018-07-19T14:35:44.352Z,38.34
2018-07-19T14:37:37.207Z,38.26
2018-07-19T14:38:37.168Z,38.17
2018-07-19T14:40:30.196Z,37.93
2018-07-19T14:41:30.213Z,38.02
2018-07-19T14:43:23.246Z,38.01
2018-07-19T14:44:23.199Z,38.05
2018-07-19T14:46:16.040Z,37.96
2018-07-19T14:47:16.037Z,38.27
2018-07-19T14:49:09.113Z,38.14
2018-07-19T14:50:09.075Z,38.08
2018-07-19T14:52:01.942Z,37.70
2018-07-19T14:53:01.887Z,37.56
2018-07-19T14:54:55.087Z,37.28
2018-07-19T14:55:55.049Z,37.11
2018-07-19T14:57:48.113Z,37.08
2018-07-19T14:58:48.065Z,37.07
2018-07-19T15:00:40.886Z,36.98
2018-07-19T15:01:40.883Z,37.10
2018-07-19T15:03:33.733Z,37.14
2018-07-19T15:04:33.697Z,37.07
2018-07-19T15:06:26.757Z,37.01
2018-07-19T15:07:26.750Z,36.93
2018-07-19T15:09:19.764Z,36.49
2018-07-19T15:10:19.751Z,36.62
2018-07-19T15:12:12.932Z,36.79
2018-07-19T15:13:12.924Z,36.92
2018-07-19T15:15:05.955Z,36.92
2018-07-19T15:16:05.953Z,36.74
2018-07-19T15:17:59.159Z,36.81
2018-07-19T15:18:59.078Z,36.54
2018-07-19T15:20:52.090Z,36.64
2018-07-19T15:21:52.081Z,36.74
2018-07-19T15:23:45.360Z,36.83
2018-07-19T15:24:45.230Z,36.89
2018-07-19T15:26:38.232Z,36.77
2018-07-19T15:27:38.210Z,36.84
2018-07-19T15:29:31.257Z,37.03
2018-07-19T15:30:31.222Z,37.18
2018-07-19T15:32:24.232Z,37.49
2018-07-19T15:33:24.212Z,37.60
2018-07-19T15:35:17.243Z,37.58
2018-07-19T15:36:17.207Z,37.55
2018-07-19T15:38:10.423Z,37.47
2018-07-19T15:39:10.369Z,36.99
2018-07-19T15:41:03.394Z,36.72
2018-07-19T15:42:03.354Z,36.20
2018-07-19T15:43:56.665Z,36.21
2018-07-19T15:44:56.552Z,36.16
2018-07-19T15:46:49.514Z,36.47
2018-07-19T15:47:49.509Z,36.55
2018-07-19T15:49:42.545Z,36.14
2018-07-19T15:50:42.505Z,36.01
2018-07-19T15:52:35.510Z,35.85
2018-07-19T15:53:35.325Z,35.49
2018-07-19T15:55:28.407Z,34.88
2018-07-19T15:56:28.333Z,34.24
2018-07-19T15:58:21.363Z,34.05
2018-07-19T15:59:21.338Z,34.25
2018-07-19T16:01:14.188Z,34.43
2018-07-19T16:02:14.145Z,34.71
2018-07-19T16:04:07.155Z,34.40
2018-07-19T16:05:07.130Z,34.50
2018-07-19T16:07:00.170Z,34.48
2018-07-19T16:08:00.125Z,34.54
2018-07-19T16:09:52.960Z,34.47
2018-07-19T16:10:52.939Z,34.54
2018-07-19T16:12:45.879Z,34.40
2018-07-19T16:13:45.741Z,34.33
2018-07-19T16:15:38.579Z,34.10
2018-07-19T16:16:38.554Z,34.06
2018-07-19T16:18:31.616Z,33.92
2018-07-19T16:19:31.556Z,33.87
2018-07-19T16:21:24.729Z,33.74
2018-07-19T16:22:24.705Z,33.74
2018-07-19T16:24:17.750Z,33.57
2018-07-19T16:25:17.704Z,33.45
2018-07-19T16:27:10.866Z,33.40
2018-07-19T16:28:10.835Z,33.30
2018-07-19T16:30:03.860Z,33.11
2018-07-19T16:31:03.824Z,33.07
2018-07-19T16:32:56.925Z,33.04
2018-07-19T16:33:56.863Z,32.93
2018-07-19T16:35:49.630Z,32.85
2018-07-19T16:36:49.603Z,32.70
2018-07-19T16:38:42.525Z,32.33
2018-07-19T16:39:42.415Z,32.19
2018-07-19T16:41:35.421Z,31.81
2018-07-19T16:42:35.403Z,31.65
2018-07-19T16:44:28.673Z,31.74
2018-07-19T16:45:28.527Z,31.69
2018-07-19T16:47:21.541Z,31.27
2018-07-19T16:48:21.520Z,31.15
2018-07-19T16:50:14.742Z,30.81
2018-07-19T16:51:14.695Z,30.62
2018-07-19T16:53:07.767Z,30.63
2018-07-19T16:54:07.741Z,30.63
2018-07-19T16:56:00.780Z,30.61
2018-07-19T16:57:00.733Z,30.50
2018-07-19T16:58:53.753Z,30.39
2018-07-19T16:59:53.559Z,30.43
2018-07-19T17:01:46.392Z,30.55
2018-07-19T17:02:46.366Z,30.61
2018-07-19T17:04:39.387Z,30.61
2018-07-19T17:05:39.442Z,30.73
2018-07-19T17:07:32.576Z,30.69
2018-07-19T17:08:32.483Z,30.84
2018-07-19T17:10:25.517Z,30.92
2018-07-19T17:11:25.482Z,30.88
2018-07-19T17:13:18.493Z,30.66
2018-07-19T17:14:18.462Z,30.44
2018-07-19T17:16:11.312Z,30.53
2018-07-19T17:17:11.323Z,30.50
2018-07-19T17:19:04.339Z,30.68
2018-07-19T17:20:04.310Z,30.75
2018-07-19T17:21:57.174Z,30.85
2018-07-19T17:22:57.143Z,30.90
2018-07-19T17:24:50.308Z,30.85
2018-07-19T17:25:50.264Z,30.72
2018-07-19T17:27:43.268Z,30.54
2018-07-19T17:28:43.234Z,30.39
2018-07-19T17:30:36.241Z,30.12
2018-07-19T17:31:36.197Z,30.13
2018-07-19T17:33:29.206Z,30.03
2018-07-19T17:34:29.182Z,29.97
2018-07-19T17:36:22.210Z,29.98
2018-07-19T17:37:22.173Z,29.88
2018-07-19T17:39:15.366Z,29.82
2018-07-19T17:40:15.357Z,29.84
2018-07-19T17:42:08.356Z,29.90
2018-07-19T17:43:08.318Z,29.90
2018-07-19T17:45:01.142Z,29.81
2018-07-19T17:46:01.112Z,29.75
2018-07-19T17:47:54.298Z,29.66
2018-07-19T17:48:54.246Z,29.49
2018-07-19T17:50:47.079Z,29.66
2018-07-19T17:51:47.059Z,29.75
2018-07-19T17:53:40.081Z,29.82
2018-07-19T17:54:40.120Z,29.84
2018-07-19T17:56:32.961Z,29.73
2018-07-19T17:57:32.894Z,29.73
2018-07-19T17:59:25.939Z,29.73
2018-07-19T18:00:25.892Z,29.79
2018-07-19T18:02:18.734Z,29.73
2018-07-19T18:03:18.692Z,29.75
2018-07-19T18:05:11.529Z,29.78
2018-07-19T18:06:11.494Z,29.69
2018-07-19T18:08:04.358Z,29.60
2018-07-19T18:09:04.301Z,29.63
2018-07-19T18:10:57.344Z,29.56
2018-07-19T18:11:57.283Z,29.51
2018-07-19T18:13:50.315Z,29.61
2018-07-19T18:14:50.264Z,29.56
2018-07-19T18:16:43.453Z,29.54
2018-07-19T18:17:43.414Z,29.38
2018-07-19T18:19:36.434Z,29.35
2018-07-19T18:20:36.402Z,29.32
2018-07-19T18:22:29.630Z,29.27
2018-07-19T18:23:29.503Z,29.26
2018-07-19T18:25:22.569Z,29.26
2018-07-19T18:26:22.501Z,29.32
2018-07-19T18:28:15.499Z,29.31
2018-07-19T18:29:15.477Z,29.31
2018-07-19T18:31:08.584Z,29.22
2018-07-19T18:32:08.541Z,29.26
2018-07-19T18:34:01.561Z,29.17